Greenville Junction, ME

6:49 PM EST on November 25, 2014 (GMT -0500)
Beaver Cove Camps | Change Station
CLOSE
Current Station
Personal Weather Station
Location: Beaver Cove, ME
Elevation: 1030 ft
Nearby Weather Stations

Elev 1030 ft 45.56 °N, 69.57 °W | Updated 3 seconds ago

Partly Cloudy
Partly Cloudy
42.4 °F
Feels Like 39 °F
N
5.0
Wind Variable Wind from SW
Gusts 8.0 mph

Today
High -- | Low -- °F
--% Chance of Precip.
Yesterday
High -- | Low -- °F
Precip. -- in
6:51 AM 4:00 PM
Waxing Crescent, 14% visible
Pressure 29.87 in
Visibility 10.0 miles
Clouds Clear
Windchill 39 °F
Dew Point 35 °F
Humidity 75%
Rainfall 0.04 in
Snow Depth Not available.
UV 0 out of 12
Pollen .10 out of 12
Air Quality Not available.
Flu Activity Not available.
METAR KMLT 252253Z AUTO 30009G18KT 10SM CLR 08/M01 A2985 RMK AO2 SLP115 T00781011

More Conditions Fewer Conditions

Pressure 29.87 in
Visibility 10.0 miles
Clouds Clear
Windchill 39 °F
Dew Point 35 °F
Humidity 75%
Rainfall 0.04 in
Snow Depth Not available.
UV 0 out of 12
Pollen .10 out of 12
Air Quality Not available.
Flu Activity Not available.
METAR KMLT 252253Z AUTO 30009G18KT 10SM CLR 08/M01 A2985 RMK AO2 SLP115 T00781011

More Conditions Fewer Conditions

10-Day Weather Forecast

Almanac

Astronomy

Nov. 25, 2014 Rise Set
Actual Time
Civil Twilight
Nautical Twilight
Astronomical Twilight
Moon
Length of Visible Light
Length of Day
Tomorrow will be .
, % of the Moon is Illuminated

Today's Extremes

State Highs State Lows

Community

WunderPhotos

Upload Photos

1,773,624 photos uploaded!

WunderBlogs® & News

Nearby

Air Quality

  Air Quality AQ Index Pollutant
Not available.

Snow Depth

Station Depth Elevation

Earthquake Activity

City Distance Mag. Time & Date
Minimum magnitude displayed is 2.5.

Coastal Water Temperatures

Place Temperature

Nearby Weather Stations